sensor_id;sensor_type;location;lat;lon;timestamp;temperature;humidity
29207;DHT22;16247;50.840;4.382;2023-03-11T00:00:33;3.80;99.90
29207;DHT22;16247;50.840;4.382;2023-03-11T00:03:00;3.70;99.90
29207;DHT22;16247;50.840;4.382;2023-03-11T00:05:35;3.90;99.90
29207;DHT22;16247;50.840;4.382;2023-03-11T00:08:02;3.70;99.90
29207;DHT22;16247;50.840;4.382;2023-03-11T00:10:31;3.70;99.90
29207;DHT22;16247;50.840;4.382;2023-03-11T00:12:58;3.60;99.90
29207;DHT22;16247;50.840;4.382;2023-03-11T00:15:24;3.50;99.90
29207;DHT22;16247;50.840;4.382;2023-03-11T00:17:50;3.60;99.90
29207;DHT22;16247;50.840;4.382;2023-03-11T00:20:28;3.40;99.90
29207;DHT22;16247;50.840;4.382;2023-03-11T00:22:54;3.50;99.90
29207;DHT22;16247;50.840;4.382;2023-03-11T00:25:24;3.40;99.90
29207;DHT22;16247;50.840;4.382;2023-03-11T00:27:50;3.40;99.90
29207;DHT22;16247;50.840;4.382;2023-03-11T00:30:18;3.40;99.90
29207;DHT22;16247;50.840;4.382;2023-03-11T00:32:47;3.30;99.90
29207;DHT22;16247;50.840;4.382;2023-03-11T00:35:18;3.50;99.90
29207;DHT22;16247;50.840;4.382;2023-03-11T00:37:46;3.20;99.90
29207;DHT22;16247;50.840;4.382;2023-03-11T00:40:16;3.10;99.90
29207;DHT22;16247;50.840;4.382;2023-03-11T00:42:43;3.20;99.90
29207;DHT22;16247;50.840;4.382;2023-03-11T00:45:09;3.30;99.90
29207;DHT22;16247;50.840;4.382;2023-03-11T00:47:35;3.20;99.90
29207;DHT22;16247;50.840;4.382;2023-03-11T00:50:00;3.30;99.90
29207;DHT22;16247;50.840;4.382;2023-03-11T00:52:26;3.20;99.90
29207;DHT22;16247;50.840;4.382;2023-03-11T00:54:54;3.40;99.90
29207;DHT22;16247;50.840;4.382;2023-03-11T00:57:20;3.40;99.90
29207;DHT22;16247;50.840;4.382;2023-03-11T00:59:56;3.30;99.90
29207;DHT22;16247;50.840;4.382;2023-03-11T01:02:41;3.30;99.90
29207;DHT22;16247;50.840;4.382;2023-03-11T01:05:11;3.20;99.90
29207;DHT22;16247;50.840;4.382;2023-03-11T01:07:37;3.30;99.90
29207;DHT22;16247;50.840;4.382;2023-03-11T01:10:04;3.40;99.90
29207;DHT22;16247;50.840;4.382;2023-03-11T01:12:30;2.90;99.90
29207;DHT22;16247;50.840;4.382;2023-03-11T01:14:55;3.10;99.90
29207;DHT22;16247;50.840;4.382;2023-03-11T01:17:21;2.90;99.90
29207;DHT22;16247;50.840;4.382;2023-03-11T01:19:47;2.90;99.90
29207;DHT22;16247;50.840;4.382;2023-03-11T01:22:13;3.00;99.90
29207;DHT22;16247;50.840;4.382;2023-03-11T01:24:39;3.10;99.90
29207;DHT22;16247;50.840;4.382;2023-03-11T01:27:05;3.00;99.90
29207;DHT22;16247;50.840;4.382;2023-03-11T01:29:30;3.10;99.90
29207;DHT22;16247;50.840;4.382;2023-03-11T01:31:57;3.10;99.90
29207;DHT22;16247;50.840;4.382;2023-03-11T01:34:24;2.90;99.90
29207;DHT22;16247;50.840;4.382;2023-03-11T01:36:49;3.00;99.90
29207;DHT22;16247;50.840;4.382;2023-03-11T01:39:15;3.00;99.90
29207;DHT22;16247;50.840;4.382;2023-03-11T01:41:41;3.10;99.90
29207;DHT22;16247;50.840;4.382;2023-03-11T01:44:09;3.00;99.90
29207;DHT22;16247;50.840;4.382;2023-03-11T01:49:20;3.10;99.90
29207;DHT22;16247;50.840;4.382;2023-03-11T01:52:15;3.30;99.90
29207;DHT22;16247;50.840;4.382;2023-03-11T01:54:42;3.20;99.90
29207;DHT22;16247;50.840;4.382;2023-03-11T01:57:12;3.30;99.90
29207;DHT22;16247;50.840;4.382;2023-03-11T01:59:47;3.50;99.90
29207;DHT22;16247;50.840;4.382;2023-03-11T02:04:41;3.40;99.90
29207;DHT22;16247;50.840;4.382;2023-03-11T02:07:08;3.30;99.90
29207;DHT22;16247;50.840;4.382;2023-03-11T02:09:34;3.10;99.90
29207;DHT22;16247;50.840;4.382;2023-03-11T02:12:01;3.30;99.90
29207;DHT22;16247;50.840;4.382;2023-03-11T02:14:28;3.40;99.90
29207;DHT22;16247;50.840;4.382;2023-03-11T02:16:54;3.50;99.90
29207;DHT22;16247;50.840;4.382;2023-03-11T02:19:34;3.20;99.90
29207;DHT22;16247;50.840;4.382;2023-03-11T02:22:03;3.20;99.90
29207;DHT22;16247;50.840;4.382;2023-03-11T02:25:00;3.20;99.90
29207;DHT22;16247;50.840;4.382;2023-03-11T02:27:27;3.20;99.90
29207;DHT22;16247;50.840;4.382;2023-03-11T02:29:56;3.20;99.90
29207;DHT22;16247;50.840;4.382;2023-03-11T02:32:23;3.10;99.90
29207;DHT22;16247;50.840;4.382;2023-03-11T02:34:49;3.30;99.90
29207;DHT22;16247;50.840;4.382;2023-03-11T02:37:16;3.10;99.90
29207;DHT22;16247;50.840;4.382;2023-03-11T02:43:30;3.30;99.90
29207;DHT22;16247;50.840;4.382;2023-03-11T02:45:58;3.30;99.90
29207;DHT22;16247;50.840;4.382;2023-03-11T02:48:24;3.20;99.90
29207;DHT22;16247;50.840;4.382;2023-03-11T02:50:51;3.20;99.90
29207;DHT22;16247;50.840;4.382;2023-03-11T02:53:16;3.40;99.90
29207;DHT22;16247;50.840;4.382;2023-03-11T02:55:42;3.30;99.90
29207;DHT22;16247;50.840;4.382;2023-03-11T02:58:08;3.20;99.90
29207;DHT22;16247;50.840;4.382;2023-03-11T03:00:33;3.40;99.90
29207;DHT22;16247;50.840;4.382;2023-03-11T03:03:02;3.30;99.90
29207;DHT22;16247;50.840;4.382;2023-03-11T03:05:28;3.40;99.90
29207;DHT22;16247;50.840;4.382;2023-03-11T03:07:54;3.30;99.90
29207;DHT22;16247;50.840;4.382;2023-03-11T03:10:20;3.40;99.90
29207;DHT22;16247;50.840;4.382;2023-03-11T03:12:46;3.50;99.90
29207;DHT22;16247;50.840;4.382;2023-03-11T03:15:12;3.60;99.90
29207;DHT22;16247;50.840;4.382;2023-03-11T03:17:40;3.30;99.90
29207;DHT22;16247;50.840;4.382;2023-03-11T03:20:07;3.60;99.90
29207;DHT22;16247;50.840;4.382;2023-03-11T03:22:37;3.40;99.90
29207;DHT22;16247;50.840;4.382;2023-03-11T03:25:04;3.50;99.90
29207;DHT22;16247;50.840;4.382;2023-03-11T03:27:30;3.60;99.90
29207;DHT22;16247;50.840;4.382;2023-03-11T03:29:56;3.70;99.90
29207;DHT22;16247;50.840;4.382;2023-03-11T03:32:21;3.90;99.90
29207;DHT22;16247;50.840;4.382;2023-03-11T03:34:47;3.90;99.90
29207;DHT22;16247;50.840;4.382;2023-03-11T03:37:12;3.90;99.90
29207;DHT22;16247;50.840;4.382;2023-03-11T03:39:38;3.70;99.90
29207;DHT22;16247;50.840;4.382;2023-03-11T03:42:04;3.90;99.90
29207;DHT22;16247;50.840;4.382;2023-03-11T03:44:30;3.80;99.90
29207;DHT22;16247;50.840;4.382;2023-03-11T03:46:55;3.90;99.90
29207;DHT22;16247;50.840;4.382;2023-03-11T03:49:21;3.80;99.90
29207;DHT22;16247;50.840;4.382;2023-03-11T03:51:49;3.90;99.90
29207;DHT22;16247;50.840;4.382;2023-03-11T03:54:15;4.00;99.90
29207;DHT22;16247;50.840;4.382;2023-03-11T03:56:41;3.80;99.90
29207;DHT22;16247;50.840;4.382;2023-03-11T03:59:06;3.50;99.90
29207;DHT22;16247;50.840;4.382;2023-03-11T04:01:32;3.80;99.90
29207;DHT22;16247;50.840;4.382;2023-03-11T04:03:58;3.60;99.90
29207;DHT22;16247;50.840;4.382;2023-03-11T04:06:25;3.60;99.90
29207;DHT22;16247;50.840;4.382;2023-03-11T04:08:53;3.70;99.90
29207;DHT22;16247;50.840;4.382;2023-03-11T04:11:19;3.70;99.90
29207;DHT22;16247;50.840;4.382;2023-03-11T04:13:47;3.70;99.90
29207;DHT22;16247;50.840;4.382;2023-03-11T04:16:16;3.70;99.90
29207;DHT22;16247;50.840;4.382;2023-03-11T04:18:50;3.90;99.90
29207;DHT22;16247;50.840;4.382;2023-03-11T04:24:23;3.90;99.90
29207;DHT22;16247;50.840;4.382;2023-03-11T04:26:48;3.80;99.90
29207;DHT22;16247;50.840;4.382;2023-03-11T04:29:14;3.90;99.90
29207;DHT22;16247;50.840;4.382;2023-03-11T04:31:40;4.10;99.90
29207;DHT22;16247;50.840;4.382;2023-03-11T04:34:05;3.90;99.90
29207;DHT22;16247;50.840;4.382;2023-03-11T04:36:31;4.10;99.90
29207;DHT22;16247;50.840;4.382;2023-03-11T04:38:57;4.20;99.90
29207;DHT22;16247;50.840;4.382;2023-03-11T04:41:23;4.00;99.90
29207;DHT22;16247;50.840;4.382;2023-03-11T04:43:48;4.10;99.90
29207;DHT22;16247;50.840;4.382;2023-03-11T04:46:14;4.00;99.90
29207;DHT22;16247;50.840;4.382;2023-03-11T04:48:40;3.90;99.90
29207;DHT22;16247;50.840;4.382;2023-03-11T04:51:07;4.00;99.90
29207;DHT22;16247;50.840;4.382;2023-03-11T04:53:32;4.20;99.90
29207;DHT22;16247;50.840;4.382;2023-03-11T04:55:58;4.10;99.90
29207;DHT22;16247;50.840;4.382;2023-03-11T04:58:24;4.10;99.90
29207;DHT22;16247;50.840;4.382;2023-03-11T05:00:51;4.00;99.90
29207;DHT22;16247;50.840;4.382;2023-03-11T05:03:17;3.90;99.90
29207;DHT22;16247;50.840;4.382;2023-03-11T05:05:44;3.80;99.90
29207;DHT22;16247;50.840;4.382;2023-03-11T05:08:10;3.70;99.90
29207;DHT22;16247;50.840;4.382;2023-03-11T05:10:36;3.70;99.90
29207;DHT22;16247;50.840;4.382;2023-03-11T05:13:03;3.60;99.90
29207;DHT22;16247;50.840;4.382;2023-03-11T05:15:29;3.90;99.90
29207;DHT22;16247;50.840;4.382;2023-03-11T05:17:56;3.70;99.90
29207;DHT22;16247;50.840;4.382;2023-03-11T05:20:22;3.80;99.90
29207;DHT22;16247;50.840;4.382;2023-03-11T05:22:48;3.80;99.90
29207;DHT22;16247;50.840;4.382;2023-03-11T05:25:13;3.60;99.90
29207;DHT22;16247;50.840;4.382;2023-03-11T05:27:39;3.70;99.90
29207;DHT22;16247;50.840;4.382;2023-03-11T05:30:06;3.60;99.90
29207;DHT22;16247;50.840;4.382;2023-03-11T05:32:31;3.60;99.90
29207;DHT22;16247;50.840;4.382;2023-03-11T05:34:57;3.70;99.90
29207;DHT22;16247;50.840;4.382;2023-03-11T05:37:23;3.50;99.90
29207;DHT22;16247;50.840;4.382;2023-03-11T05:39:50;3.60;99.90
29207;DHT22;16247;50.840;4.382;2023-03-11T05:42:15;3.20;99.90
29207;DHT22;16247;50.840;4.382;2023-03-11T05:44:41;3.20;99.90
29207;DHT22;16247;50.840;4.382;2023-03-11T05:47:07;3.20;99.90
29207;DHT22;16247;50.840;4.382;2023-03-11T05:49:32;3.00;99.90
29207;DHT22;16247;50.840;4.382;2023-03-11T05:51:58;3.00;99.90
29207;DHT22;16247;50.840;4.382;2023-03-11T05:54:26;3.20;99.90
29207;DHT22;16247;50.840;4.382;2023-03-11T06:00:09;3.10;99.90
29207;DHT22;16247;50.840;4.382;2023-03-11T06:02:38;3.20;99.90
29207;DHT22;16247;50.840;4.382;2023-03-11T06:05:05;3.40;99.90
29207;DHT22;16247;50.840;4.382;2023-03-11T06:07:33;3.30;99.90
29207;DHT22;16247;50.840;4.382;2023-03-11T06:09:59;3.30;99.90
29207;DHT22;16247;50.840;4.382;2023-03-11T06:12:24;3.50;99.90
29207;DHT22;16247;50.840;4.382;2023-03-11T06:14:52;3.30;99.90
29207;DHT22;16247;50.840;4.382;2023-03-11T06:17:18;3.40;99.90
29207;DHT22;16247;50.840;4.382;2023-03-11T06:19:43;3.50;99.90
29207;DHT22;16247;50.840;4.382;2023-03-11T06:22:09;3.60;99.90
29207;DHT22;16247;50.840;4.382;2023-03-11T06:24:37;3.60;99.90
29207;DHT22;16247;50.840;4.382;2023-03-11T06:27:02;3.60;99.90
29207;DHT22;16247;50.840;4.382;2023-03-11T06:29:28;3.60;99.90
29207;DHT22;16247;50.840;4.382;2023-03-11T06:31:54;3.50;99.90
29207;DHT22;16247;50.840;4.382;2023-03-11T06:34:20;3.50;99.90
29207;DHT22;16247;50.840;4.382;2023-03-11T06:36:46;3.70;99.90
29207;DHT22;16247;50.840;4.382;2023-03-11T06:39:15;3.40;99.90
29207;DHT22;16247;50.840;4.382;2023-03-11T06:41:41;3.40;99.90
29207;DHT22;16247;50.840;4.382;2023-03-11T06:44:10;3.40;99.90
29207;DHT22;16247;50.840;4.382;2023-03-11T06:46:36;3.30;99.90
29207;DHT22;16247;50.840;4.382;2023-03-11T06:49:02;3.50;99.90
29207;DHT22;16247;50.840;4.382;2023-03-11T06:51:28;3.40;99.90
29207;DHT22;16247;50.840;4.382;2023-03-11T06:53:53;3.50;99.90
29207;DHT22;16247;50.840;4.382;2023-03-11T06:56:21;3.60;99.90
29207;DHT22;16247;50.840;4.382;2023-03-11T06:58:47;3.80;99.90
29207;DHT22;16247;50.840;4.382;2023-03-11T07:01:15;3.60;99.90
29207;DHT22;16247;50.840;4.382;2023-03-11T07:03:41;3.60;99.90
29207;DHT22;16247;50.840;4.382;2023-03-11T07:06:15;3.90;99.90
29207;DHT22;16247;50.840;4.382;2023-03-11T07:08:42;3.70;99.90
29207;DHT22;16247;50.840;4.382;2023-03-11T07:11:27;3.90;99.90
29207;DHT22;16247;50.840;4.382;2023-03-11T07:13:53;3.90;99.90
29207;DHT22;16247;50.840;4.382;2023-03-11T07:16:23;3.90;99.90
29207;DHT22;16247;50.840;4.382;2023-03-11T07:18:50;4.20;99.90
29207;DHT22;16247;50.840;4.382;2023-03-11T07:21:19;3.90;99.90
29207;DHT22;16247;50.840;4.382;2023-03-11T07:23:45;4.10;99.90
29207;DHT22;16247;50.840;4.382;2023-03-11T07:26:13;4.20;99.90
29207;DHT22;16247;50.840;4.382;2023-03-11T07:28:41;4.20;99.90
29207;DHT22;16247;50.840;4.382;2023-03-11T07:31:13;4.50;99.90
29207;DHT22;16247;50.840;4.382;2023-03-11T07:33:43;4.30;99.90
29207;DHT22;16247;50.840;4.382;2023-03-11T07:36:28;4.30;99.90
29207;DHT22;16247;50.840;4.382;2023-03-11T07:42:20;4.50;99.90
29207;DHT22;16247;50.840;4.382;2023-03-11T07:44:51;4.70;99.90
29207;DHT22;16247;50.840;4.382;2023-03-11T07:47:16;4.50;99.90
29207;DHT22;16247;50.840;4.382;2023-03-11T07:49:42;4.80;99.90
29207;DHT22;16247;50.840;4.382;2023-03-11T07:52:07;4.60;99.90
29207;DHT22;16247;50.840;4.382;2023-03-11T07:54:33;4.70;99.90
29207;DHT22;16247;50.840;4.382;2023-03-11T07:56:59;4.60;99.90
29207;DHT22;16247;50.840;4.382;2023-03-11T07:59:25;5.00;99.90
29207;DHT22;16247;50.840;4.382;2023-03-11T08:01:51;4.90;99.90
29207;DHT22;16247;50.840;4.382;2023-03-11T08:04:17;5.20;99.90
29207;DHT22;16247;50.840;4.382;2023-03-11T08:06:45;5.10;99.90
29207;DHT22;16247;50.840;4.382;2023-03-11T08:09:12;5.00;99.90
29207;DHT22;16247;50.840;4.382;2023-03-11T08:11:38;5.00;99.90
29207;DHT22;16247;50.840;4.382;2023-03-11T08:14:04;5.20;99.90
29207;DHT22;16247;50.840;4.382;2023-03-11T08:16:30;5.30;99.90
29207;DHT22;16247;50.840;4.382;2023-03-11T08:18:56;5.00;99.90
29207;DHT22;16247;50.840;4.382;2023-03-11T08:21:26;5.10;99.90
29207;DHT22;16247;50.840;4.382;2023-03-11T08:23:56;5.20;99.90
29207;DHT22;16247;50.840;4.382;2023-03-11T08:26:23;5.50;99.90
29207;DHT22;16247;50.840;4.382;2023-03-11T08:28:51;5.30;99.90
29207;DHT22;16247;50.840;4.382;2023-03-11T08:31:25;5.40;99.90
29207;DHT22;16247;50.840;4.382;2023-03-11T08:33:53;5.60;99.90
29207;DHT22;16247;50.840;4.382;2023-03-11T08:36:20;5.90;99.90
29207;DHT22;16247;50.840;4.382;2023-03-11T08:38:48;5.70;99.90
29207;DHT22;16247;50.840;4.382;2023-03-11T08:41:14;5.80;99.90
29207;DHT22;16247;50.840;4.382;2023-03-11T08:43:40;6.00;99.90
29207;DHT22;16247;50.840;4.382;2023-03-11T08:46:07;5.90;99.90
29207;DHT22;16247;50.840;4.382;2023-03-11T08:48:34;5.90;99.90
29207;DHT22;16247;50.840;4.382;2023-03-11T08:51:00;6.00;99.90
29207;DHT22;16247;50.840;4.382;2023-03-11T08:53:28;5.90;99.90
29207;DHT22;16247;50.840;4.382;2023-03-11T08:55:54;6.10;99.90
29207;DHT22;16247;50.840;4.382;2023-03-11T08:58:19;5.90;99.90
29207;DHT22;16247;50.840;4.382;2023-03-11T09:00:45;6.00;99.90
29207;DHT22;16247;50.840;4.382;2023-03-11T09:03:11;6.10;99.90
29207;DHT22;16247;50.840;4.382;2023-03-11T09:05:37;6.10;99.90
29207;DHT22;16247;50.840;4.382;2023-03-11T09:08:03;6.30;99.90
29207;DHT22;16247;50.840;4.382;2023-03-11T09:10:30;6.20;99.90
29207;DHT22;16247;50.840;4.382;2023-03-11T09:12:55;6.30;99.90
29207;DHT22;16247;50.840;4.382;2023-03-11T09:15:22;6.10;99.90
29207;DHT22;16247;50.840;4.382;2023-03-11T09:17:48;6.30;99.90
29207;DHT22;16247;50.840;4.382;2023-03-11T09:20:16;6.40;99.90
29207;DHT22;16247;50.840;4.382;2023-03-11T09:22:42;6.60;99.90
29207;DHT22;16247;50.840;4.382;2023-03-11T09:25:11;6.80;99.90
29207;DHT22;16247;50.840;4.382;2023-03-11T09:27:38;7.20;99.90
29207;DHT22;16247;50.840;4.382;2023-03-11T09:30:05;7.10;99.90
29207;DHT22;16247;50.840;4.382;2023-03-11T09:32:31;7.00;99.90
29207;DHT22;16247;50.840;4.382;2023-03-11T09:34:56;7.40;99.90
29207;DHT22;16247;50.840;4.382;2023-03-11T09:37:22;7.20;99.90
29207;DHT22;16247;50.840;4.382;2023-03-11T09:39:48;7.30;99.90
29207;DHT22;16247;50.840;4.382;2023-03-11T09:45:18;7.10;99.90
29207;DHT22;16247;50.840;4.382;2023-03-11T09:50:49;7.30;99.90
29207;DHT22;16247;50.840;4.382;2023-03-11T09:53:44;7.40;99.90
29207;DHT22;16247;50.840;4.382;2023-03-11T09:56:14;7.30;99.90
29207;DHT22;16247;50.840;4.382;2023-03-11T09:58:58;7.40;99.90
29207;DHT22;16247;50.840;4.382;2023-03-11T10:01:37;7.30;99.90
29207;DHT22;16247;50.840;4.382;2023-03-11T10:06:34;7.70;99.90
29207;DHT22;16247;50.840;4.382;2023-03-11T10:12:02;7.30;99.90
29207;DHT22;16247;50.840;4.382;2023-03-11T10:24:10;7.30;99.90
29207;DHT22;16247;50.840;4.382;2023-03-11T10:26:19;7.60;99.90
29207;DHT22;16247;50.840;4.382;2023-03-11T10:33:56;8.30;99.90
29207;DHT22;16247;50.840;4.382;2023-03-11T10:36:53;8.40;99.90
29207;DHT22;16247;50.840;4.382;2023-03-11T10:46:29;8.00;99.90
29207;DHT22;16247;50.840;4.382;2023-03-11T10:48:55;8.10;99.90
29207;DHT22;16247;50.840;4.382;2023-03-11T10:51:26;8.10;99.90
29207;DHT22;16247;50.840;4.382;2023-03-11T10:53:55;8.20;99.90
29207;DHT22;16247;50.840;4.382;2023-03-11T10:59:03;8.10;99.90
29207;DHT22;16247;50.840;4.382;2023-03-11T11:01:29;8.10;99.90
29207;DHT22;16247;50.840;4.382;2023-03-11T11:03:57;8.40;99.90
29207;DHT22;16247;50.840;4.382;2023-03-11T11:09:14;8.10;99.90
29207;DHT22;16247;50.840;4.382;2023-03-11T11:12:13;8.00;99.90
29207;DHT22;16247;50.840;4.382;2023-03-11T11:14:46;7.90;99.90
29207;DHT22;16247;50.840;4.382;2023-03-11T11:17:30;7.90;99.90
29207;DHT22;16247;50.840;4.382;2023-03-11T11:19:58;8.00;99.90
29207;DHT22;16247;50.840;4.382;2023-03-11T11:22:25;8.20;99.90
29207;DHT22;16247;50.840;4.382;2023-03-11T11:24:55;7.60;99.90
29207;DHT22;16247;50.840;4.382;2023-03-11T11:32:37;8.00;99.90
29207;DHT22;16247;50.840;4.382;2023-03-11T11:35:08;8.10;99.90
29207;DHT22;16247;50.840;4.382;2023-03-11T11:37:38;8.20;99.90
29207;DHT22;16247;50.840;4.382;2023-03-11T11:43:05;8.40;99.90
29207;DHT22;16247;50.840;4.382;2023-03-11T11:46:00;8.50;99.90
29207;DHT22;16247;50.840;4.382;2023-03-11T11:51:31;8.80;99.90
29207;DHT22;16247;50.840;4.382;2023-03-11T11:53:59;8.60;99.90
29207;DHT22;16247;50.840;4.382;2023-03-11T11:56:26;8.60;99.90
29207;DHT22;16247;50.840;4.382;2023-03-11T11:58:53;8.40;99.90
29207;DHT22;16247;50.840;4.382;2023-03-11T12:09:39;8.90;99.90
29207;DHT22;16247;50.840;4.382;2023-03-11T12:12:33;8.90;99.90
29207;DHT22;16247;50.840;4.382;2023-03-11T12:17:30;9.00;99.90
29207;DHT22;16247;50.840;4.382;2023-03-11T12:20:35;9.20;99.90
29207;DHT22;16247;50.840;4.382;2023-03-11T12:23:24;8.70;99.90
29207;DHT22;16247;50.840;4.382;2023-03-11T12:26:15;8.70;99.90
29207;DHT22;16247;50.840;4.382;2023-03-11T12:28:56;8.60;99.90
29207;DHT22;16247;50.840;4.382;2023-03-11T12:31:26;8.70;99.90
29207;DHT22;16247;50.840;4.382;2023-03-11T12:33:58;9.20;99.90
29207;DHT22;16247;50.840;4.382;2023-03-11T12:36:35;9.00;99.90
29207;DHT22;16247;50.840;4.382;2023-03-11T12:39:17;8.80;99.90
29207;DHT22;16247;50.840;4.382;2023-03-11T12:41:45;8.80;99.90
29207;DHT22;16247;50.840;4.382;2023-03-11T12:47:00;9.20;99.90
29207;DHT22;16247;50.840;4.382;2023-03-11T13:07:49;10.40;99.90
29207;DHT22;16247;50.840;4.382;2023-03-11T13:18:49;9.70;99.90
29207;DHT22;16247;50.840;4.382;2023-03-11T13:27:04;9.50;99.90
29207;DHT22;16247;50.840;4.382;2023-03-11T13:43:02;9.30;99.90
29207;DHT22;16247;50.840;4.382;2023-03-11T13:45:29;9.00;99.90
29207;DHT22;16247;50.840;4.382;2023-03-11T13:48:17;9.10;99.90
29207;DHT22;16247;50.840;4.382;2023-03-11T13:51:07;9.10;99.90
29207;DHT22;16247;50.840;4.382;2023-03-11T13:53:53;9.00;99.90
29207;DHT22;16247;50.840;4.382;2023-03-11T13:56:44;8.90;99.90
29207;DHT22;16247;50.840;4.382;2023-03-11T13:59:23;8.90;99.90
29207;DHT22;16247;50.840;4.382;2023-03-11T14:01:56;8.80;99.90
29207;DHT22;16247;50.840;4.382;2023-03-11T14:04:35;8.80;99.90
29207;DHT22;16247;50.840;4.382;2023-03-11T14:07:25;8.70;99.90
29207;DHT22;16247;50.840;4.382;2023-03-11T14:10:07;8.50;99.90
29207;DHT22;16247;50.840;4.382;2023-03-11T14:12:33;8.60;99.90
29207;DHT22;16247;50.840;4.382;2023-03-11T14:15:03;8.40;99.90
29207;DHT22;16247;50.840;4.382;2023-03-11T14:17:29;8.40;99.90
29207;DHT22;16247;50.840;4.382;2023-03-11T14:20:14;8.40;99.90
29207;DHT22;16247;50.840;4.382;2023-03-11T14:22:46;8.50;99.90
29207;DHT22;16247;50.840;4.382;2023-03-11T14:25:25;8.80;99.90
29207;DHT22;16247;50.840;4.382;2023-03-11T14:28:00;8.80;99.90
29207;DHT22;16247;50.840;4.382;2023-03-11T14:30:31;8.90;99.90
29207;DHT22;16247;50.840;4.382;2023-03-11T14:33:15;9.00;99.90
29207;DHT22;16247;50.840;4.382;2023-03-11T14:35:52;8.80;99.90
29207;DHT22;16247;50.840;4.382;2023-03-11T14:38:27;8.80;99.90
29207;DHT22;16247;50.840;4.382;2023-03-11T14:40:58;9.00;99.90
29207;DHT22;16247;50.840;4.382;2023-03-11T14:43:27;8.70;99.90
29207;DHT22;16247;50.840;4.382;2023-03-11T14:45:54;8.80;99.90
29207;DHT22;16247;50.840;4.382;2023-03-11T14:48:38;8.80;99.90
29207;DHT22;16247;50.840;4.382;2023-03-11T14:51:13;8.80;99.90
29207;DHT22;16247;50.840;4.382;2023-03-11T14:53:44;8.80;99.90
29207;DHT22;16247;50.840;4.382;2023-03-11T14:56:21;8.90;99.90
29207;DHT22;16247;50.840;4.382;2023-03-11T14:59:04;8.70;99.90
29207;DHT22;16247;50.840;4.382;2023-03-11T15:01:35;8.90;99.90
29207;DHT22;16247;50.840;4.382;2023-03-11T15:04:35;9.20;99.90
29207;DHT22;16247;50.840;4.382;2023-03-11T15:07:04;9.10;99.90
29207;DHT22;16247;50.840;4.382;2023-03-11T15:09:30;9.00;99.90
29207;DHT22;16247;50.840;4.382;2023-03-11T15:12:02;9.30;99.90
29207;DHT22;16247;50.840;4.382;2023-03-11T15:14:31;9.00;99.90
29207;DHT22;16247;50.840;4.382;2023-03-11T15:19:50;9.00;99.90
29207;DHT22;16247;50.840;4.382;2023-03-11T15:22:23;9.30;99.90
29207;DHT22;16247;50.840;4.382;2023-03-11T15:24:52;9.20;99.90
29207;DHT22;16247;50.840;4.382;2023-03-11T15:27:38;9.40;99.90
29207;DHT22;16247;50.840;4.382;2023-03-11T15:32:53;9.10;99.90
29207;DHT22;16247;50.840;4.382;2023-03-11T15:35:28;9.00;99.90
29207;DHT22;16247;50.840;4.382;2023-03-11T15:40:55;8.90;99.90
29207;DHT22;16247;50.840;4.382;2023-03-11T15:43:31;9.00;99.90
29207;DHT22;16247;50.840;4.382;2023-03-11T15:45:59;9.20;99.90
29207;DHT22;16247;50.840;4.382;2023-03-11T15:48:27;9.50;99.90
29207;DHT22;16247;50.840;4.382;2023-03-11T15:50:57;9.90;99.90
29207;DHT22;16247;50.840;4.382;2023-03-11T15:53:25;10.10;99.90
29207;DHT22;16247;50.840;4.382;2023-03-11T15:55:56;10.80;99.90
29207;DHT22;16247;50.840;4.382;2023-03-11T15:58:22;10.70;99.90
29207;DHT22;16247;50.840;4.382;2023-03-11T16:00:51;10.60;99.90
29207;DHT22;16247;50.840;4.382;2023-03-11T16:03:18;10.60;99.90
29207;DHT22;16247;50.840;4.382;2023-03-11T16:05:45;10.10;99.90
29207;DHT22;16247;50.840;4.382;2023-03-11T16:08:11;10.20;99.90
29207;DHT22;16247;50.840;4.382;2023-03-11T16:10:39;10.40;99.90
29207;DHT22;16247;50.840;4.382;2023-03-11T16:13:24;9.60;99.90
29207;DHT22;16247;50.840;4.382;2023-03-11T16:15:54;9.50;99.90
29207;DHT22;16247;50.840;4.382;2023-03-11T16:18:23;9.70;99.90
29207;DHT22;16247;50.840;4.382;2023-03-11T16:20:53;9.40;99.90
29207;DHT22;16247;50.840;4.382;2023-03-11T16:23:30;9.60;99.90
29207;DHT22;16247;50.840;4.382;2023-03-11T16:26:01;9.10;99.90
29207;DHT22;16247;50.840;4.382;2023-03-11T16:28:27;8.90;99.90
29207;DHT22;16247;50.840;4.382;2023-03-11T16:30:59;9.20;99.90
29207;DHT22;16247;50.840;4.382;2023-03-11T16:33:25;8.80;99.90
29207;DHT22;16247;50.840;4.382;2023-03-11T16:35:54;8.90;99.90
29207;DHT22;16247;50.840;4.382;2023-03-11T16:38:20;8.90;99.90
29207;DHT22;16247;50.840;4.382;2023-03-11T16:40:56;8.90;99.90
29207;DHT22;16247;50.840;4.382;2023-03-11T16:43:25;8.60;99.90
29207;DHT22;16247;50.840;4.382;2023-03-11T16:45:53;8.60;99.90
29207;DHT22;16247;50.840;4.382;2023-03-11T16:54:44;8.70;99.90
29207;DHT22;16247;50.840;4.382;2023-03-11T16:57:11;8.90;99.90
29207;DHT22;16247;50.840;4.382;2023-03-11T16:59:40;8.90;99.90
29207;DHT22;16247;50.840;4.382;2023-03-11T17:02:09;8.70;99.90
29207;DHT22;16247;50.840;4.382;2023-03-11T17:09:40;8.50;99.90
29207;DHT22;16247;50.840;4.382;2023-03-11T17:12:09;8.40;99.90
29207;DHT22;16247;50.840;4.382;2023-03-11T17:14:37;8.60;99.90
29207;DHT22;16247;50.840;4.382;2023-03-11T17:17:03;8.80;99.90
29207;DHT22;16247;50.840;4.382;2023-03-11T17:19:29;8.50;99.90
29207;DHT22;16247;50.840;4.382;2023-03-11T17:21:55;8.90;99.90
29207;DHT22;16247;50.840;4.382;2023-03-11T17:24:22;8.70;99.90
29207;DHT22;16247;50.840;4.382;2023-03-11T17:26:54;8.80;99.90
29207;DHT22;16247;50.840;4.382;2023-03-11T17:29:24;8.70;99.90
29207;DHT22;16247;50.840;4.382;2023-03-11T17:35:33;8.50;99.90
29207;DHT22;16247;50.840;4.382;2023-03-11T17:38:00;8.50;99.90
29207;DHT22;16247;50.840;4.382;2023-03-11T17:40:44;8.60;99.90
29207;DHT22;16247;50.840;4.382;2023-03-11T17:43:53;8.40;99.90
29207;DHT22;16247;50.840;4.382;2023-03-11T17:46:25;8.00;99.90
29207;DHT22;16247;50.840;4.382;2023-03-11T17:49:01;8.20;99.90
29207;DHT22;16247;50.840;4.382;2023-03-11T17:51:49;8.00;99.90
29207;DHT22;16247;50.840;4.382;2023-03-11T17:54:18;8.00;99.90
29207;DHT22;16247;50.840;4.382;2023-03-11T17:57:25;8.20;99.90
29207;DHT22;16247;50.840;4.382;2023-03-11T18:00:41;7.90;99.90
29207;DHT22;16247;50.840;4.382;2023-03-11T18:03:21;8.00;99.90
29207;DHT22;16247;50.840;4.382;2023-03-11T18:06:17;7.90;99.90
29207;DHT22;16247;50.840;4.382;2023-03-11T18:08:49;7.90;99.90
29207;DHT22;16247;50.840;4.382;2023-03-11T18:12:01;8.20;99.90
29207;DHT22;16247;50.840;4.382;2023-03-11T18:14:28;8.00;99.90
29207;DHT22;16247;50.840;4.382;2023-03-11T18:17:20;7.80;99.90
29207;DHT22;16247;50.840;4.382;2023-03-11T18:20:10;7.70;99.90
29207;DHT22;16247;50.840;4.382;2023-03-11T18:23:01;7.80;99.90
29207;DHT22;16247;50.840;4.382;2023-03-11T18:25:50;8.00;99.90
29207;DHT22;16247;50.840;4.382;2023-03-11T18:28:36;7.80;99.90
29207;DHT22;16247;50.840;4.382;2023-03-11T18:31:59;7.80;99.90
29207;DHT22;16247;50.840;4.382;2023-03-11T18:34:30;7.80;99.90
29207;DHT22;16247;50.840;4.382;2023-03-11T18:37:00;7.90;99.90